Turnersville, New Jersey
Current Conditions -  °F | °C
As of 9:54 PM on Sunday 21 Dec 2014 (Local Time) from KPHL Reporting Station
Clear Clear  
Wind Chill: 34°   Ceiling: Unl
Heat Index: 34°   Visibility: 10mi
Dew Point: 22°   Wind: 3mph
Humidity: 61%   Direction: NA
Pressure: 30.35"   Gusts: NA
Location:  39.778°N, 75.0552°W
Report Text: KPHL 220254Z VRB03KT 10SM CLR 01/M06 A3035 RMK AO2 SLP277 T00111056 50001
Loading
Personal Weather Stations






























Interactive Weather Map New forecast layout! Learn more

10-Day Weather Forecast

Advertisements
Track Severe Weather on mobile